createdAt,value
2018-05-02T00:00:28.537Z,8.97
2018-05-02T00:02:59.852Z,8.88
2018-05-02T00:05:31.342Z,8.93
2018-05-02T00:08:02.770Z,8.95
2018-05-02T00:10:34.319Z,8.80
2018-05-02T00:13:05.786Z,8.60
2018-05-02T00:15:37.277Z,8.72
2018-05-02T00:31:57.470Z,8.61
2018-05-02T00:34:27.366Z,8.50
2018-05-02T00:36:56.596Z,8.59
2018-05-02T00:39:26.490Z,8.55
2018-05-02T00:41:57.257Z,8.62
2018-05-02T00:44:27.151Z,8.68
2018-05-02T00:46:56.374Z,8.76
2018-05-02T00:49:25.536Z,8.81
2018-05-02T00:51:55.417Z,8.74
2018-05-02T00:54:25.311Z,8.69
2018-05-02T00:56:54.430Z,8.53
2018-05-02T00:59:23.541Z,8.54
2018-05-02T01:01:52.654Z,8.58
2018-05-02T01:04:22.012Z,8.67
2018-05-02T01:06:51.963Z,8.68
2018-05-02T01:09:21.115Z,8.68
2018-05-02T01:11:50.249Z,8.65
2018-05-02T01:14:19.600Z,8.62
2018-05-02T01:16:48.712Z,8.58
2018-05-02T01:19:17.855Z,8.57
2018-05-02T01:21:46.972Z,8.43
2018-05-02T01:24:16.078Z,8.36
2018-05-02T01:26:46.193Z,8.31
2018-05-02T01:29:15.315Z,8.17
2018-05-02T01:31:45.234Z,8.16
2018-05-02T01:34:15.157Z,8.30
2018-05-02T01:36:45.908Z,8.28
2018-05-02T01:39:15.050Z,8.29
2018-05-02T01:41:44.953Z,8.22
2018-05-02T01:44:14.098Z,8.10
2018-05-02T01:46:44.020Z,8.13
2018-05-02T01:49:24.854Z,8.13
2018-05-02T01:51:54.025Z,8.14
2018-05-02T01:54:24.538Z,8.10
2018-05-02T01:56:53.672Z,8.08
2018-05-02T01:59:22.896Z,8.08
2018-05-02T02:01:53.071Z,8.08
2018-05-02T02:04:22.240Z,8.04
2018-05-02T02:06:51.715Z,8.04
2018-05-02T02:09:23.665Z,8.10
2018-05-02T02:11:52.787Z,8.13
2018-05-02T02:14:22.674Z,8.04
2018-05-02T02:16:51.818Z,8.01
2018-05-02T02:19:21.978Z,8.01
2018-05-02T02:21:51.103Z,8.12
2018-05-02T02:24:20.993Z,8.17
2018-05-02T02:26:50.142Z,8.15
2018-05-02T02:29:19.268Z,8.57
2018-05-02T02:31:48.415Z,8.72
2018-05-02T02:34:18.296Z,9.01
2018-05-02T02:36:47.419Z,9.25
2018-05-02T02:39:17.339Z,9.10
2018-05-02T02:41:47.245Z,8.99
2018-05-02T02:44:16.390Z,9.02
2018-05-02T02:46:45.853Z,9.14
2018-05-02T02:49:14.985Z,9.21
2018-05-02T02:51:44.111Z,9.03
2018-05-02T02:54:13.238Z,8.93
2018-05-02T02:56:42.366Z,9.09
2018-05-02T02:59:11.499Z,9.62
2018-05-02T03:01:40.621Z,9.86
2018-05-02T03:04:10.576Z,10.00
2018-05-02T03:06:39.702Z,10.08
2018-05-02T03:09:08.848Z,9.94
2018-05-02T03:11:38.009Z,9.90
2018-05-02T03:14:07.137Z,10.20
2018-05-02T03:16:36.306Z,10.23
2018-05-02T03:19:06.193Z,10.35
2018-05-02T03:21:35.347Z,10.40
2018-05-02T03:24:04.495Z,10.44
2018-05-02T03:26:33.654Z,10.49
2018-05-02T03:29:02.937Z,10.65
2018-05-02T03:31:32.653Z,10.50
2018-05-02T03:34:01.813Z,10.72
2018-05-02T03:36:30.990Z,10.77
2018-05-02T03:39:00.883Z,10.96
2018-05-02T03:41:30.013Z,10.75
2018-05-02T03:43:59.158Z,10.78
2018-05-02T03:46:28.316Z,10.71
2018-05-02T03:48:58.210Z,10.52
2018-05-02T03:51:27.418Z,10.32
2018-05-02T03:53:56.537Z,10.35
2018-05-02T03:56:26.585Z,10.12
2018-05-02T03:58:55.740Z,9.99
2018-05-02T04:01:44.230Z,9.88
2018-05-02T04:04:30.812Z,9.79
2018-05-02T04:07:15.656Z,9.78
2018-05-02T04:09:46.407Z,9.78
2018-05-02T04:12:18.574Z,9.65
2018-05-02T04:14:47.952Z,9.63
2018-05-02T04:17:17.929Z,9.69
2018-05-02T04:19:47.805Z,9.58
2018-05-02T04:22:16.968Z,9.60
2018-05-02T04:24:46.853Z,9.43
2018-05-02T04:27:16.026Z,9.41
2018-05-02T04:32:10.407Z,9.41
2018-05-02T04:34:39.647Z,9.44
2018-05-02T04:37:08.855Z,9.61
2018-05-02T04:39:38.874Z,9.76
2018-05-02T04:42:08.073Z,9.84
2018-05-02T04:44:37.207Z,9.84
2018-05-02T04:47:07.152Z,9.85
2018-05-02T04:49:36.311Z,9.89
2018-05-02T04:52:06.662Z,9.79
2018-05-02T04:54:36.049Z,9.68
2018-05-02T04:57:05.950Z,9.51
2018-05-02T04:59:35.945Z,9.49
2018-05-02T05:02:05.132Z,9.61
2018-05-02T05:04:34.274Z,9.73
2018-05-02T05:07:03.924Z,9.72
2018-05-02T05:09:33.069Z,9.81
2018-05-02T05:12:03.042Z,9.85
2018-05-02T05:14:32.227Z,9.82
2018-05-02T05:17:01.475Z,9.91
2018-05-02T05:19:31.406Z,10.10
2018-05-02T05:22:01.505Z,10.18
2018-05-02T05:24:32.279Z,10.24
2018-05-02T05:27:02.379Z,10.37
2018-05-02T05:29:31.524Z,10.66
2018-05-02T05:32:00.678Z,10.98
2018-05-02T05:34:29.831Z,11.18
2018-05-02T05:36:58.978Z,11.27
2018-05-02T05:39:28.142Z,11.17
2018-05-02T05:41:58.786Z,11.32
2018-05-02T05:44:27.955Z,11.48
2018-05-02T05:46:57.176Z,11.63
2018-05-02T05:49:27.097Z,11.70
2018-05-02T05:51:57.944Z,11.73
2018-05-02T05:54:27.127Z,11.52
2018-05-02T05:56:57.054Z,11.52
2018-05-02T05:59:26.223Z,11.58
2018-05-02T06:01:56.137Z,11.50
2018-05-02T06:04:26.046Z,11.58
2018-05-02T06:06:55.946Z,11.68
2018-05-02T06:09:25.172Z,11.79
2018-05-02T06:11:55.992Z,11.67
2018-05-02T06:14:25.924Z,11.58
2018-05-02T06:16:55.838Z,11.68
2018-05-02T06:19:25.019Z,11.63
2018-05-02T06:21:54.170Z,11.71
2018-05-02T06:24:23.349Z,11.84
2018-05-02T06:26:52.562Z,12.11
2018-05-02T06:29:22.381Z,12.16
2018-05-02T06:31:51.633Z,12.16
2018-05-02T06:34:20.683Z,12.27
2018-05-02T06:36:49.869Z,12.47
2018-05-02T06:39:19.786Z,12.42
2018-05-02T06:41:48.938Z,12.58
2018-05-02T06:44:18.110Z,12.75
2018-05-02T06:46:48.183Z,12.80
2018-05-02T06:49:17.369Z,12.93
2018-05-02T06:51:46.529Z,12.99
2018-05-02T06:54:16.530Z,12.89
2018-05-02T06:56:45.681Z,12.93
2018-05-02T06:59:14.906Z,12.92
2018-05-02T07:01:44.822Z,12.85
2018-05-02T07:04:14.732Z,12.72
2018-05-02T07:06:44.650Z,12.58
2018-05-02T07:09:14.618Z,12.72
2018-05-02T07:11:44.533Z,12.77
2018-05-02T07:14:13.713Z,12.57
2018-05-02T07:16:42.843Z,12.54
2018-05-02T07:19:11.973Z,12.63
2018-05-02T07:21:41.933Z,12.88
2018-05-02T07:24:11.101Z,12.93
2018-05-02T07:26:41.028Z,13.10
2018-05-02T07:29:10.187Z,13.26
2018-05-02T07:31:39.325Z,13.29
2018-05-02T07:34:08.499Z,13.40
2018-05-02T07:36:38.589Z,13.39
2018-05-02T07:39:07.724Z,13.25
2018-05-02T07:41:37.751Z,13.51
2018-05-02T07:44:07.656Z,13.66
2018-05-02T07:46:37.366Z,13.63
2018-05-02T07:49:06.558Z,13.65
2018-05-02T07:51:35.716Z,13.68
2018-05-02T07:54:04.866Z,13.62
2018-05-02T07:56:34.802Z,13.68
2018-05-02T07:59:04.704Z,13.65
2018-05-02T08:01:33.881Z,13.86
2018-05-02T08:04:03.810Z,13.95
2018-05-02T08:06:32.954Z,14.04
2018-05-02T08:09:02.131Z,14.13
2018-05-02T08:11:31.266Z,14.21
2018-05-02T08:14:01.452Z,14.28
2018-05-02T08:16:30.619Z,14.35
2018-05-02T08:18:59.776Z,14.36
2018-05-02T08:21:28.948Z,14.47
2018-05-02T08:23:58.094Z,14.44
2018-05-02T08:26:27.266Z,14.34
2018-05-02T08:28:57.181Z,14.44
2018-05-02T08:31:27.102Z,14.39
2018-05-02T08:33:56.235Z,14.45
2018-05-02T08:36:25.440Z,14.36
2018-05-02T08:38:54.660Z,14.50
2018-05-02T08:41:23.763Z,14.70
2018-05-02T08:43:53.919Z,14.79
2018-05-02T08:46:23.201Z,14.86
2018-05-02T08:48:52.305Z,14.81
2018-05-02T08:51:22.230Z,14.81
2018-05-02T08:53:51.396Z,14.81
2018-05-02T08:56:21.533Z,14.98
2018-05-02T08:58:51.482Z,15.08
2018-05-02T09:01:20.649Z,14.88
2018-05-02T09:03:50.652Z,15.04
2018-05-02T09:06:19.789Z,14.96
2018-05-02T09:08:49.081Z,15.07
2018-05-02T09:11:18.221Z,15.21
2018-05-02T09:13:47.418Z,15.39
2018-05-02T09:16:16.549Z,15.52
2018-05-02T09:18:46.744Z,15.57
2018-05-02T09:21:16.034Z,15.30
2018-05-02T09:23:45.271Z,15.14
2018-05-02T09:26:15.212Z,15.21
2018-05-02T09:28:44.373Z,15.23
2018-05-02T09:31:14.374Z,15.18
2018-05-02T09:33:43.604Z,14.98
2018-05-02T09:36:12.826Z,15.13
2018-05-02T09:38:42.736Z,15.19
2018-05-02T09:41:12.660Z,15.14
2018-05-02T09:43:42.606Z,15.36
2018-05-02T09:46:11.762Z,15.46
2018-05-02T09:48:41.680Z,15.56
2018-05-02T09:51:10.821Z,15.68
2018-05-02T09:53:40.407Z,15.67
2018-05-02T09:56:09.537Z,15.73
2018-05-02T09:58:38.700Z,15.60
2018-05-02T10:01:07.914Z,15.68
2018-05-02T10:03:37.864Z,15.77
2018-05-02T10:06:07.033Z,15.81
2018-05-02T10:08:36.184Z,15.82
2018-05-02T10:11:06.080Z,16.10
2018-05-02T10:13:35.233Z,16.19
2018-05-02T10:16:04.363Z,16.23
2018-05-02T10:18:33.590Z,16.30
2018-05-02T10:21:02.895Z,16.32
2018-05-02T10:23:33.454Z,16.25
2018-05-02T10:26:02.622Z,16.21
2018-05-02T10:28:32.670Z,16.17
2018-05-02T10:31:01.875Z,16.09
2018-05-02T10:33:31.009Z,16.35
2018-05-02T10:36:01.862Z,16.47
2018-05-02T10:38:31.578Z,16.48
2018-05-02T10:41:02.420Z,16.55
2018-05-02T10:43:32.356Z,16.61
2018-05-02T10:46:01.513Z,16.57
2018-05-02T10:48:30.698Z,16.41
2018-05-02T10:50:59.889Z,16.35
2018-05-02T10:53:29.385Z,16.38
2018-05-02T10:55:58.671Z,16.39
2018-05-02T10:58:27.837Z,16.36
2018-05-02T11:00:57.745Z,16.49
2018-05-02T11:03:26.904Z,16.61
2018-05-02T11:05:56.043Z,16.76
2018-05-02T11:08:25.372Z,16.58
2018-05-02T11:10:54.485Z,16.70
2018-05-02T11:13:24.501Z,16.66
2018-05-02T11:15:54.421Z,16.75
2018-05-02T11:18:24.350Z,16.89
2018-05-02T11:20:54.262Z,17.07
2018-05-02T11:23:23.470Z,17.12
2018-05-02T11:25:52.639Z,17.11
2018-05-02T11:28:22.550Z,17.28
2018-05-02T11:30:52.477Z,17.42
2018-05-02T11:33:22.399Z,17.40
2018-05-02T11:35:51.547Z,17.22
2018-05-02T11:38:20.707Z,17.34
2018-05-02T11:40:50.079Z,17.25
2018-05-02T11:43:20.003Z,17.27
2018-05-02T11:45:49.164Z,17.42
2018-05-02T11:48:18.324Z,17.51
2018-05-02T11:50:47.462Z,17.45
2018-05-02T11:53:16.627Z,17.45
2018-05-02T11:55:45.785Z,17.70
2018-05-02T11:58:14.955Z,17.68
2018-05-02T12:00:44.105Z,17.57
2018-05-02T12:03:13.526Z,17.75
2018-05-02T12:05:42.716Z,17.76
2018-05-02T12:08:11.875Z,17.79
2018-05-02T12:10:41.777Z,17.67
2018-05-02T12:13:11.898Z,17.60
2018-05-02T12:15:41.048Z,17.67
2018-05-02T12:18:11.221Z,17.81
2018-05-02T12:20:41.119Z,17.80
2018-05-02T12:23:10.254Z,17.77
2018-05-02T12:25:39.882Z,17.59
2018-05-02T12:28:09.027Z,17.64
2018-05-02T12:30:38.998Z,17.36
2018-05-02T12:33:08.163Z,17.37
2018-05-02T12:35:37.303Z,17.35
2018-05-02T12:38:06.446Z,17.45
2018-05-02T12:40:36.474Z,17.73
2018-05-02T12:43:06.373Z,17.84
2018-05-02T12:45:36.298Z,17.99
2018-05-02T12:48:06.978Z,18.07
2018-05-02T12:50:36.126Z,18.22
2018-05-02T12:53:06.554Z,18.22
2018-05-02T12:55:36.777Z,18.49
2018-05-02T12:58:06.736Z,18.57
2018-05-02T13:00:35.891Z,18.87
2018-05-02T13:03:05.083Z,19.14
2018-05-02T13:05:35.106Z,19.17
2018-05-02T13:08:04.290Z,19.36
2018-05-02T13:10:33.448Z,19.38
2018-05-02T13:13:02.604Z,19.23
2018-05-02T13:15:32.543Z,19.29
2018-05-02T13:18:01.681Z,19.44
2018-05-02T13:20:30.889Z,19.35
2018-05-02T13:23:00.043Z,19.16
2018-05-02T13:25:29.975Z,19.30
2018-05-02T13:27:59.422Z,19.43
2018-05-02T13:30:29.344Z,19.44
2018-05-02T13:32:59.245Z,19.45
2018-05-02T13:35:29.199Z,19.42
2018-05-02T13:37:58.358Z,19.44
2018-05-02T13:40:28.279Z,19.45
2018-05-02T13:42:58.217Z,19.27
2018-05-02T13:45:28.202Z,19.37
2018-05-02T13:47:58.132Z,19.23
2018-05-02T13:50:28.036Z,19.16
2018-05-02T13:52:57.992Z,19.21
2018-05-02T13:55:27.919Z,19.26
2018-05-02T13:57:57.071Z,19.18
2018-05-02T14:00:26.996Z,19.05
2018-05-02T14:02:56.157Z,19.06
2018-05-02T14:05:25.334Z,19.01
2018-05-02T14:07:54.479Z,19.14
2018-05-02T14:10:23.624Z,19.17
2018-05-02T14:12:52.770Z,19.47
2018-05-02T14:15:22.678Z,19.52
2018-05-02T14:17:52.620Z,19.32
2018-05-02T14:20:22.780Z,19.43
2018-05-02T14:22:51.913Z,19.84
2018-05-02T14:25:21.837Z,19.94
2018-05-02T14:27:51.785Z,19.86
2018-05-02T14:30:27.105Z,20.04
2018-05-02T14:33:01.713Z,19.97
2018-05-02T14:35:37.102Z,20.13
2018-05-02T14:38:06.316Z,20.37
2018-05-02T14:40:35.481Z,20.63
2018-05-02T14:43:04.632Z,20.75
2018-05-02T14:45:34.805Z,20.60
2018-05-02T14:48:03.980Z,20.61
2018-05-02T14:50:33.129Z,20.38
2018-05-02T14:53:02.313Z,20.15
2018-05-02T14:55:33.255Z,20.14
2018-05-02T14:58:02.412Z,20.12
2018-05-02T15:00:31.560Z,19.96
2018-05-02T15:03:01.719Z,19.99
2018-05-02T15:05:30.883Z,19.58
2018-05-02T15:08:00.028Z,19.50
2018-05-02T15:10:29.173Z,19.48
2018-05-02T15:12:58.381Z,19.39
2018-05-02T15:15:28.254Z,19.30
2018-05-02T15:17:57.485Z,19.13
2018-05-02T15:20:26.550Z,19.21
2018-05-02T15:22:56.729Z,19.19
2018-05-02T15:25:26.044Z,19.15
2018-05-02T15:27:56.016Z,19.07
2018-05-02T15:30:25.159Z,18.93
2018-05-02T15:32:54.324Z,18.85
2018-05-02T15:35:23.496Z,18.72
2018-05-02T15:37:52.623Z,18.76
2018-05-02T15:40:22.574Z,18.85
2018-05-02T15:42:51.726Z,18.91
2018-05-02T15:45:21.666Z,18.85
2018-05-02T15:47:51.886Z,18.74
2018-05-02T15:50:21.816Z,18.73
2018-05-02T15:52:51.020Z,18.70
2018-05-02T15:55:20.155Z,18.74
2018-05-02T15:57:49.304Z,18.75
2018-05-02T16:00:18.469Z,18.84
2018-05-02T16:02:47.667Z,18.92
2018-05-02T16:05:16.833Z,18.93
2018-05-02T16:07:47.263Z,19.06
2018-05-02T16:10:16.480Z,19.12
2018-05-02T16:12:46.457Z,18.98
2018-05-02T16:15:15.606Z,18.90
2018-05-02T16:17:44.772Z,18.94
2018-05-02T16:20:14.682Z,18.98
2018-05-02T16:22:43.848Z,18.85
2018-05-02T16:25:13.038Z,18.75
2018-05-02T16:27:42.237Z,18.78
2018-05-02T16:30:12.166Z,18.63
2018-05-02T16:32:41.347Z,18.53
2018-05-02T16:35:10.573Z,18.41
2018-05-02T16:37:39.704Z,18.44
2018-05-02T16:40:09.627Z,18.36
2018-05-02T16:42:40.707Z,18.39
2018-05-02T16:45:09.913Z,18.29
2018-05-02T16:47:39.117Z,18.27
2018-05-02T16:50:09.019Z,18.23
2018-05-02T16:52:38.197Z,18.16
2018-05-02T16:55:07.357Z,18.24
2018-05-02T16:57:38.258Z,18.24
2018-05-02T17:00:08.181Z,18.16
2018-05-02T17:02:37.338Z,18.09
2018-05-02T17:05:06.500Z,18.04
2018-05-02T17:07:36.457Z,17.96
2018-05-02T17:10:05.712Z,18.05
2018-05-02T17:12:34.844Z,18.11
2018-05-02T17:15:04.029Z,18.18
2018-05-02T17:17:34.008Z,18.07
2018-05-02T17:20:03.150Z,18.04
2018-05-02T17:22:32.312Z,17.94
2018-05-02T17:25:02.220Z,17.87
2018-05-02T17:27:31.374Z,17.96
2018-05-02T17:30:00.590Z,17.90
2018-05-02T17:32:29.776Z,17.85
2018-05-02T17:34:59.702Z,17.93
2018-05-02T17:37:28.866Z,17.81
2018-05-02T17:39:58.047Z,17.74
2018-05-02T17:42:27.996Z,17.61
2018-05-02T17:44:57.157Z,17.58
2018-05-02T17:47:26.707Z,17.55
2018-05-02T17:49:55.847Z,17.52
2018-05-02T17:52:25.025Z,17.58
2018-05-02T17:54:54.225Z,17.61
2018-05-02T17:57:23.380Z,17.63
2018-05-02T17:59:53.593Z,17.64
2018-05-02T18:02:22.755Z,17.58
2018-05-02T18:04:52.791Z,17.55
2018-05-02T18:07:23.084Z,17.56
2018-05-02T18:09:52.275Z,17.51
2018-05-02T18:12:21.478Z,17.55
2018-05-02T18:14:50.695Z,17.56
2018-05-02T18:17:20.612Z,17.54
2018-05-02T18:19:50.587Z,17.63
2018-05-02T18:22:19.731Z,17.50
2018-05-02T18:24:49.673Z,17.48
2018-05-02T18:27:18.836Z,17.45
2018-05-02T18:29:48.745Z,17.45
2018-05-02T18:32:18.667Z,17.29
2018-05-02T18:34:48.636Z,17.13
2018-05-02T18:37:17.839Z,16.99
2018-05-02T18:39:47.931Z,17.00
2018-05-02T18:42:17.216Z,16.96
2018-05-02T18:44:48.064Z,16.86
2018-05-02T18:47:17.260Z,16.79
2018-05-02T18:49:47.335Z,16.94
2018-05-02T18:52:16.551Z,17.02
2018-05-02T18:54:45.736Z,17.05
2018-05-02T18:57:14.908Z,17.02
2018-05-02T18:59:44.090Z,16.87
2018-05-02T19:02:14.043Z,16.80
2018-05-02T19:04:44.228Z,16.90
2018-05-02T19:07:13.395Z,16.93
2018-05-02T19:09:43.404Z,16.89
2018-05-02T19:12:13.385Z,16.86
2018-05-02T19:14:43.288Z,16.79
2018-05-02T19:17:12.441Z,16.79
2018-05-02T19:19:47.124Z,16.77
2018-05-02T19:22:16.300Z,16.71
2018-05-02T19:24:50.928Z,16.60
2018-05-02T19:27:20.106Z,16.46
2018-05-02T19:29:49.315Z,16.61
2018-05-02T19:32:24.684Z,16.50
2018-05-02T19:34:53.870Z,16.42
2018-05-02T19:37:23.059Z,16.54
2018-05-02T19:39:57.665Z,16.64
2018-05-02T19:45:28.220Z,16.55
2018-05-02T19:47:57.400Z,16.59
2018-05-02T19:50:26.805Z,16.54
2018-05-02T19:52:55.978Z,16.52
2018-05-02T19:55:25.881Z,16.56
2018-05-02T19:57:55.050Z,16.53
2018-05-02T20:00:30.507Z,16.47
2018-05-02T20:03:02.165Z,16.45
2018-05-02T20:05:32.275Z,16.48
2018-05-02T20:08:01.434Z,16.31
2018-05-02T20:10:35.938Z,16.14
2018-05-02T20:13:11.728Z,16.04
2018-05-02T20:15:41.235Z,16.01
2018-05-02T20:18:10.377Z,16.06
2018-05-02T20:20:40.828Z,16.18
2018-05-02T20:23:10.744Z,16.17
2018-05-02T20:25:39.918Z,16.15
2018-05-02T20:28:10.163Z,16.27
2018-05-02T20:30:39.337Z,16.30
2018-05-02T20:33:09.267Z,16.31
2018-05-02T20:35:40.315Z,16.12
2018-05-02T20:38:09.538Z,16.08
2018-05-02T20:40:38.690Z,16.16
2018-05-02T20:43:08.654Z,15.91
2018-05-02T20:45:38.608Z,15.80
2018-05-02T20:48:07.790Z,15.79
2018-05-02T20:50:36.945Z,15.90
2018-05-02T20:53:06.099Z,15.83
2018-05-02T20:55:36.142Z,15.86
2018-05-02T20:58:06.078Z,15.73
2018-05-02T21:00:36.030Z,15.57
2018-05-02T21:03:05.198Z,15.42
2018-05-02T21:05:34.361Z,15.25
2018-05-02T21:08:04.279Z,15.15
2018-05-02T21:10:33.439Z,15.09
2018-05-02T21:13:02.904Z,15.21
2018-05-02T21:15:32.082Z,15.16
2018-05-02T21:18:01.999Z,15.36
2018-05-02T21:20:31.157Z,15.39
2018-05-02T21:23:01.074Z,15.46
2018-05-02T21:25:30.254Z,15.44
2018-05-02T21:27:59.415Z,15.19
2018-05-02T21:30:28.535Z,14.99
2018-05-02T21:32:57.705Z,14.90
2018-05-02T21:35:26.846Z,15.08
2018-05-02T21:37:56.786Z,15.09
2018-05-02T21:40:26.962Z,15.09
2018-05-02T21:42:57.062Z,15.34
2018-05-02T21:45:26.182Z,15.43
2018-05-02T21:47:55.391Z,15.49
2018-05-02T21:50:24.534Z,15.65
2018-05-02T21:52:55.513Z,15.70
2018-05-02T21:55:24.656Z,15.76
2018-05-02T21:57:53.792Z,15.75
2018-05-02T22:00:22.946Z,15.62
2018-05-02T22:02:52.603Z,15.76
2018-05-02T22:05:21.759Z,15.74
2018-05-02T22:07:52.757Z,15.91
2018-05-02T22:10:22.686Z,15.92
2018-05-02T22:12:51.833Z,15.65
2018-05-02T22:15:21.791Z,15.53
2018-05-02T22:17:51.953Z,15.25
2018-05-02T22:20:21.834Z,14.98
2018-05-02T22:22:51.011Z,14.74
2018-05-02T22:25:20.164Z,14.56
2018-05-02T22:27:50.094Z,14.64
2018-05-02T22:30:20.070Z,14.71
2018-05-02T22:32:49.220Z,14.68
2018-05-02T22:35:19.167Z,14.61
2018-05-02T22:37:48.309Z,14.56
2018-05-02T22:40:18.764Z,14.44
2018-05-02T22:42:47.881Z,14.26
2018-05-02T22:45:17.052Z,14.13
2018-05-02T22:47:46.230Z,14.24
2018-05-02T22:50:16.141Z,14.14
2018-05-02T22:52:46.030Z,14.09
2018-05-02T22:55:15.196Z,14.16
2018-05-02T22:57:44.356Z,14.21
2018-05-02T23:00:14.254Z,14.22
2018-05-02T23:02:44.198Z,14.18
2018-05-02T23:05:13.326Z,14.12
2018-05-02T23:07:42.481Z,14.24
2018-05-02T23:10:11.665Z,14.34
2018-05-02T23:12:41.771Z,14.59
2018-05-02T23:15:10.915Z,14.52
2018-05-02T23:17:40.054Z,14.55
2018-05-02T23:20:09.206Z,14.58
2018-05-02T23:22:38.337Z,14.65
2018-05-02T23:25:07.488Z,14.65
2018-05-02T23:27:36.640Z,14.51
2018-05-02T23:30:06.999Z,14.53
2018-05-02T23:32:36.915Z,14.70
2018-05-02T23:35:06.811Z,14.79
2018-05-02T23:37:36.746Z,14.88
2018-05-02T23:40:06.645Z,14.95
2018-05-02T23:42:36.553Z,14.96
2018-05-02T23:45:06.478Z,14.83
2018-05-02T23:47:36.393Z,14.58
2018-05-02T23:50:06.310Z,14.39
2018-05-02T23:52:36.221Z,14.21
2018-05-02T23:55:06.134Z,14.28
2018-05-02T23:57:36.035Z,14.34
